Time;durP1;ratioP1;P1;durP2;ratioP2;P2;SDS_P1;SDS_P2;PMS_P1;PMS_P2;Temp;Humidity;BMP_temperature;BMP_pressure;BME280_temperature;BME280_humidity;BME280_pressure;Samples;Min_cycle;Max_cycle;Signal;HPM_P1;HPM_P2
2021/10/22 00:01:10;;;;;;;;;10.00;10.00;;;;;8.37;68.86;101651.13;5014200;28;45519;-70
2021/10/22 00:03:36;;;;;;;;;12.33;8.00;;;;;8.37;68.69;101651.13;5011982;28;47472;-68
2021/10/22 00:06:01;;;;;;;;;15.33;12.33;;;;;8.35;68.60;101652.94;5014804;28;45412;-68
2021/10/22 00:08:26;;;;;;;;;15.67;11.00;;;;;8.35;68.93;101657.34;5025626;28;45360;-69
2021/10/22 00:10:52;;;;;;;;;14.00;10.33;;;;;8.33;69.10;101659.19;5015687;28;46072;-69
2021/10/22 00:13:18;;;;;;;;;18.00;13.00;;;;;8.25;68.98;101660.44;5011353;28;45531;-69
2021/10/22 00:15:44;;;;;;;;;13.67;8.67;;;;;8.29;68.72;101671.63;5009924;28;45503;-68
2021/10/22 00:18:09;;;;;;;;;13.33;8.33;;;;;8.26;69.44;101671.75;5011282;28;45505;-68
2021/10/22 00:20:35;;;;;;;;;17.33;10.33;;;;;8.24;69.29;101679.69;5013151;28;45396;-69
2021/10/22 00:23:00;;;;;;;;;11.67;11.67;;;;;8.21;69.42;101677.22;5006256;28;45416;-71
2021/10/22 00:25:26;;;;;;;;;13.00;12.00;;;;;8.18;69.24;101673.91;5013328;28;45442;-69
2021/10/22 00:27:51;;;;;;;;;10.33;9.00;;;;;8.18;69.66;101676.53;5012372;28;47637;-69
2021/10/22 00:30:17;;;;;;;;;8.00;7.00;;;;;8.16;69.43;101678.34;5012104;28;46027;-69
2021/10/22 00:32:43;;;;;;;;;14.00;9.00;;;;;8.16;69.64;101678.34;5014015;28;45813;-69
2021/10/22 00:35:08;;;;;;;;;13.33;8.67;;;;;8.15;69.41;101679.25;5010776;28;45536;-69
2021/10/22 00:37:34;;;;;;;;;14.00;12.00;;;;;8.13;69.74;101678.50;5010386;28;45428;-69
2021/10/22 00:39:59;;;;;;;;;13.00;11.00;;;;;8.09;69.62;101676.06;5011138;28;46206;-69
2021/10/22 00:42:25;;;;;;;;;11.33;9.00;;;;;8.07;69.81;101674.44;5010234;28;45466;-70
2021/10/22 00:44:52;;;;;;;;;11.67;11.67;;;;;8.07;70.19;101677.06;5014978;28;45388;-70
2021/10/22 00:47:18;;;;;;;;;11.67;11.33;;;;;8.07;70.07;101674.44;5012194;28;45718;-69
2021/10/22 00:49:44;;;;;;;;;19.33;11.00;;;;;8.05;69.99;101674.47;5015745;28;45685;-70
2021/10/22 00:52:10;;;;;;;;;10.67;9.67;;;;;8.03;69.78;101676.34;5021440;28;45459;-69
2021/10/22 00:54:36;;;;;;;;;22.33;13.00;;;;;8.00;70.15;101671.25;5011230;28;45408;-70
2021/10/22 00:57:02;;;;;;;;;17.25;14.50;;;;;7.97;70.33;101681.03;5013161;28;45551;-70
2021/10/22 00:59:27;;;;;;;;;17.67;13.67;;;;;7.92;70.10;101673.38;5013867;28;45503;-69
2021/10/22 01:01:53;;;;;;;;;11.50;11.50;;;;;7.95;70.52;101682.84;5008475;28;45481;-68
2021/10/22 01:04:18;;;;;;;;;11.67;10.00;;;;;7.95;70.36;101678.47;5010842;28;45443;-69
2021/10/22 01:06:44;;;;;;;;;19.00;12.33;;;;;7.89;70.36;101670.94;5011585;28;45390;-70
2021/10/22 01:09:11;;;;;;;;;13.50;12.00;;;;;7.92;70.30;101678.63;5011943;28;45555;-70
2021/10/22 01:11:39;;;;;;;;;16.33;14.00;;;;;7.92;70.36;101676.00;5027780;28;45588;-68
2021/10/22 01:14:06;;;;;;;;;15.00;12.00;;;;;7.91;70.85;101674.31;5005901;28;45405;-68
2021/10/22 01:16:32;;;;;;;;;19.00;13.00;;;;;7.87;70.35;101686.69;5010149;28;45407;-69
2021/10/22 01:18:57;;;;;;;;;13.00;13.00;;;;;7.88;70.83;101687.53;5011335;28;47031;-70
2021/10/22 01:21:23;;;;;;;;;19.50;15.00;;;;;7.86;70.05;101684.13;5009202;28;45438;-69
2021/10/22 01:23:48;;;;;;;;;18.00;14.00;;;;;7.85;70.29;101693.78;5013992;28;45725;-68
2021/10/22 01:26:17;;;;;;;;;16.75;14.25;;;;;7.87;70.21;101691.06;5011360;28;45359;-69
2021/10/22 01:28:42;;;;;;;;;19.50;14.75;;;;;7.85;70.77;101688.53;5009669;28;46065;-69
2021/10/22 01:31:07;;;;;;;;;18.00;17.00;;;;;7.82;70.28;101695.66;5010048;28;45408;-68
2021/10/22 01:33:33;;;;;;;;;20.00;12.50;;;;;7.69;70.71;101680.56;5010185;28;45479;-70
2021/10/22 01:35:58;;;;;;;;;16.75;15.00;;;;;7.77;71.03;101695.88;5016159;28;45314;-70
2021/10/22 01:38:25;;;;;;;;;19.25;14.00;;;;;7.78;70.51;101701.97;5011474;28;46118;-69
2021/10/22 01:40:55;;;;;;;;;18.75;17.50;;;;;7.75;70.90;101698.56;5009600;28;45365;-69
2021/10/22 01:43:25;;;;;;;;;19.25;17.25;;;;;7.75;70.38;101698.56;5010764;28;45441;-70
2021/10/22 01:45:52;;;;;;;;;21.00;17.00;;;;;7.75;70.97;101703.81;5010534;28;45596;-70
2021/10/22 01:48:17;;;;;;;;;16.75;14.00;;;;;7.73;70.79;101699.56;5013241;28;45554;-69
2021/10/22 01:50:43;;;;;;;;;19.25;16.00;;;;;7.73;70.90;101700.44;5021501;28;45543;-68
2021/10/22 01:53:10;;;;;;;;;17.75;14.25;;;;;7.71;70.63;101702.25;5031753;28;45406;-67
2021/10/22 01:55:35;;;;;;;;;18.00;14.67;;;;;7.72;70.74;101698.72;5009923;28;45913;-68
2021/10/22 01:58:02;;;;;;;;;24.75;16.00;;;;;7.73;71.09;101703.03;5010021;28;45512;-70
2021/10/22 02:00:29;;;;;;;;;22.25;16.75;;;;;7.71;70.97;101702.25;5009869;28;45483;-71
2021/10/22 02:02:54;;;;;;;;;18.75;15.00;;;;;7.66;70.79;101699.00;5011154;28;45369;-73
2021/10/22 02:05:20;;;;;;;;;19.25;14.00;;;;;7.65;71.29;101696.47;5001969;28;45719;-71
2021/10/22 02:07:45;;;;;;;;;18.00;14.00;;;;;7.67;70.80;101703.31;5004922;28;46571;-71
2021/10/22 02:10:10;;;;;;;;;16.50;13.50;;;;;7.65;71.17;101696.47;5010540;28;45506;-70
2021/10/22 02:12:36;;;;;;;;;18.00;12.75;;;;;7.65;71.26;101692.06;5014115;28;45502;-70
2021/10/22 02:15:02;;;;;;;;;19.00;13.00;;;;;7.62;70.72;101687.00;5013080;28;45398;-73
2021/10/22 02:17:27;;;;;;;;;16.75;12.75;;;;;7.60;71.01;101691.44;5015282;28;46915;-69
2021/10/22 02:19:53;;;;;;;;;20.00;16.75;;;;;7.62;71.45;101697.44;5010182;28;45483;-75
2021/10/22 02:22:18;;;;;;;;;16.00;14.25;;;;;7.60;70.87;101700.16;5007959;28;45571;-77
2021/10/22 02:24:43;;;;;;;;;17.00;13.00;;;;;7.62;70.91;101697.44;5007052;28;45586;-75
2021/10/22 02:33:11;;;;;;;;;17.25;15.00;;;;;7.62;71.51;101697.44;5622642;22;46649;-78
2021/10/22 02:35:38;;;;;;;;;22.00;17.25;;;;;7.61;71.37;101685.28;4992418;28;45623;-77
2021/10/22 02:41:04;;;;;;;;;12.00;12.00;;;;;7.60;71.29;101688.81;5877149;22;46890;-70
2021/10/22 02:43:30;;;;;;;;;17.00;13.00;;;;;7.62;71.08;101694.84;5025439;22;45428;-70
2021/10/22 02:45:55;;;;;;;;;20.25;15.75;;;;;7.62;70.97;101702.69;4961767;28;47333;-70
2021/10/22 02:48:21;;;;;;;;;28.50;22.50;;;;;7.61;71.49;101690.53;4980132;28;47025;-70
2021/10/22 02:50:46;;;;;;;;;14.25;13.00;;;;;7.67;71.37;101700.72;4971915;28;45359;-70
2021/10/22 02:53:12;;;;;;;;;15.00;12.75;;;;;7.67;71.36;101698.09;4977043;28;46037;-69
2021/10/22 02:55:37;;;;;;;;;13.75;13.00;;;;;7.64;70.69;101692.16;4976918;28;45569;-69
2021/10/22 02:58:02;;;;;;;;;17.50;15.50;;;;;7.67;71.02;101698.09;4976616;28;46014;-68
2021/10/22 03:00:28;;;;;;;;;17.00;14.75;;;;;7.66;70.91;101704.22;4962503;28;45559;-69
2021/10/22 03:02:53;;;;;;;;;15.75;12.00;;;;;7.67;70.90;101700.72;4977179;28;45876;-69
2021/10/22 03:05:18;;;;;;;;;15.00;13.25;;;;;7.68;71.08;101707.63;4977107;28;45573;-69
2021/10/22 03:07:44;;;;;;;;;18.00;14.75;;;;;7.68;70.58;101712.00;4977151;28;45596;-70
2021/10/22 03:10:10;;;;;;;;;22.75;19.00;;;;;7.70;70.68;101702.34;4959749;28;45434;-67
2021/10/22 03:12:35;;;;;;;;;15.25;13.00;;;;;7.68;70.63;101696.31;4961786;28;45391;-69
2021/10/22 03:15:06;;;;;;;;;16.25;12.75;;;;;7.68;70.82;101702.41;4964580;28;45465;-68
2021/10/22 03:17:32;;;;;;;;;19.50;18.50;;;;;7.66;70.75;101700.78;4977842;28;45425;-69
2021/10/22 03:19:57;;;;;;;;;25.75;18.25;;;;;7.62;70.50;101696.63;4980959;28;45614;-69
2021/10/22 03:22:22;;;;;;;;;16.00;13.50;;;;;7.60;70.18;101701.91;4977084;28;45231;-68
2021/10/22 03:24:48;;;;;;;;;18.50;15.00;;;;;7.55;70.77;101702.13;4977582;28;45555;-69
2021/10/22 03:27:15;;;;;;;;;14.25;12.50;;;;;7.54;70.82;101710.03;4975665;28;45912;-68
2021/10/22 03:29:42;;;;;;;;;16.75;13.25;;;;;7.53;70.56;101710.94;4976281;28;45448;-68
2021/10/22 03:32:08;;;;;;;;;15.75;12.00;;;;;7.52;70.74;101715.31;4976806;28;45528;-69
2021/10/22 03:34:34;;;;;;;;;16.25;11.75;;;;;7.48;71.02;101710.31;4977418;28;45452;-69
2021/10/22 03:37:00;;;;;;;;;17.50;16.00;;;;;7.44;70.47;101702.59;4960935;28;46006;-68
2021/10/22 03:39:26;;;;;;;;;19.25;16.00;;;;;7.44;71.05;101710.44;4977399;28;45462;-70
2021/10/22 03:41:51;;;;;;;;;17.25;12.25;;;;;7.43;70.74;101706.16;4979000;28;45617;-69
2021/10/22 03:44:17;;;;;;;;;14.50;11.50;;;;;7.44;70.97;101705.22;4973502;28;45168;-69
2021/10/22 03:46:43;;;;;;;;;15.50;12.50;;;;;7.41;70.67;101702.75;4966933;28;46097;-68
2021/10/22 03:49:09;;;;;;;;;20.25;16.00;;;;;7.40;70.90;101718.50;4981189;28;45401;-69
2021/10/22 03:51:34;;;;;;;;;21.25;17.00;;;;;7.40;71.14;101714.13;4976841;28;45426;-70
2021/10/22 03:54:00;;;;;;;;;24.75;15.75;;;;;7.41;70.90;101713.19;4987203;28;47380;-68
2021/10/22 03:56:25;;;;;;;;;28.75;19.25;;;;;7.39;71.26;101711.56;4979750;28;45567;-70
2021/10/22 03:58:51;;;;;;;;;15.75;14.00;;;;;7.41;70.64;101718.44;4976411;28;45548;-69
2021/10/22 04:01:17;;;;;;;;;16.00;13.25;;;;;7.41;70.83;101726.28;4976364;28;45366;-69
2021/10/22 04:03:42;;;;;;;;;17.50;13.50;;;;;7.41;70.97;101720.22;4983183;28;45362;-69
2021/10/22 04:06:08;;;;;;;;;13.00;10.75;;;;;7.37;70.78;101718.63;4984270;28;45401;-69
2021/10/22 04:08:33;;;;;;;;;19.75;14.00;;;;;7.37;71.40;101719.50;4975669;28;45374;-70
2021/10/22 04:10:59;;;;;;;;;12.25;12.00;;;;;7.37;71.32;101719.50;4976228;28;46004;-68
2021/10/22 04:13:24;;;;;;;;;18.75;13.00;;;;;7.39;70.69;101725.47;4977210;28;45545;-69
2021/10/22 04:15:55;;;;;;;;;18.75;14.50;;;;;7.43;71.01;101713.13;4977714;28;46073;-68
2021/10/22 04:18:21;;;;;;;;;15.25;11.25;;;;;7.43;70.39;101729.69;4965230;28;45522;-68
2021/10/22 04:20:46;;;;;;;;;12.50;8.00;;;;;7.43;70.77;101728.81;4981840;28;45501;-68
2021/10/22 04:23:12;;;;;;;;;17.00;13.50;;;;;7.41;70.91;101731.50;4975114;28;45478;-69
2021/10/22 04:25:38;;;;;;;;;11.50;11.25;;;;;7.41;70.57;101731.50;4975350;28;46271;-69
2021/10/22 04:28:08;;;;;;;;;14.00;12.50;;;;;7.42;71.04;101727.97;4974393;28;45409;-68
2021/10/22 04:30:34;;;;;;;;;14.00;12.00;;;;;7.43;70.83;101727.06;4972882;28;45449;-68
2021/10/22 04:33:00;;;;;;;;;19.25;13.00;;;;;7.42;71.01;101732.34;4975910;28;45355;-69
2021/10/22 04:35:25;;;;;;;;;11.50;10.50;;;;;7.42;70.50;101730.59;4967798;28;47528;-68
2021/10/22 04:40:33;;;;;;;;;21.75;15.25;;;;;7.42;70.88;101735.81;4964216;28;45435;-69
2021/10/22 04:43:07;;;;;;;;;14.25;8.50;;;;;7.38;70.77;101734.25;4976046;28;45613;-68
2021/10/22 04:45:36;;;;;;;;;21.50;16.25;;;;;7.38;70.68;101752.56;4976544;28;46977;-71
2021/10/22 04:48:04;;;;;;;;;16.75;16.00;;;;;7.37;70.72;101753.47;4957721;28;45481;-70
2021/10/22 04:50:30;;;;;;;;;16.75;13.50;;;;;7.34;70.90;101756.19;4975545;28;45639;-70
2021/10/22 04:52:56;;;;;;;;;12.25;12.25;;;;;7.34;70.78;101758.81;4980826;28;45448;-68
2021/10/22 04:55:23;;;;;;;;;15.25;12.00;;;;;7.33;70.90;101749.31;4978569;28;46178;-69
2021/10/22 04:57:52;;;;;;;;;14.75;12.75;;;;;7.34;71.04;101761.44;4975431;28;45385;-69
2021/10/22 05:00:18;;;;;;;;;20.50;15.50;;;;;7.31;70.73;101761.56;4976192;28;45394;-69
2021/10/22 05:02:44;;;;;;;;;14.75;9.50;;;;;7.30;70.71;101756.41;4975578;28;45450;-69
2021/10/22 05:05:10;;;;;;;;;15.50;13.75;;;;;7.25;70.84;101757.47;4974955;28;46410;-69
2021/10/22 05:07:35;;;;;;;;;14.25;13.00;;;;;7.26;70.22;101753.09;4975252;28;45461;-68
2021/10/22 05:10:01;;;;;;;;;14.50;12.00;;;;;7.24;70.73;101749.72;4974684;28;45517;-68
2021/10/22 05:12:26;;;;;;;;;13.75;11.50;;;;;7.22;70.19;101751.53;4975517;28;45470;-69
2021/10/22 05:14:52;;;;;;;;;17.25;14.00;;;;;7.21;70.15;101749.81;4974895;28;46998;-68
2021/10/22 05:17:18;;;;;;;;;15.50;14.50;;;;;7.24;70.27;101760.16;4968947;28;45473;-69
2021/10/22 05:19:44;;;;;;;;;13.25;12.00;;;;;7.24;69.91;101770.63;4965350;28;45453;-71
2021/10/22 05:22:09;;;;;;;;;14.50;14.50;;;;;7.25;69.98;101767.06;4975397;28;45590;-70
2021/10/22 05:24:35;;;;;;;;;14.25;14.25;;;;;7.23;70.55;101763.69;4959313;28;46130;-70
2021/10/22 05:27:01;;;;;;;;;15.50;13.75;;;;;7.25;70.63;101767.06;4979708;28;45521;-69
2021/10/22 05:29:26;;;;;;;;;16.00;12.75;;;;;7.26;70.98;101769.63;4975226;28;45433;-68
2021/10/22 05:31:52;;;;;;;;;17.25;10.75;;;;;7.26;70.25;101774.00;4974970;28;45364;-69
2021/10/22 05:34:20;;;;;;;;;16.25;14.25;;;;;7.29;70.09;101768.66;4976475;28;46027;-69
2021/10/22 05:36:46;;;;;;;;;14.00;12.00;;;;;7.27;69.94;101773.09;4985569;28;45542;-69
2021/10/22 05:39:14;;;;;;;;;14.00;13.00;;;;;7.24;70.20;101776.69;4974988;28;45372;-69
2021/10/22 05:41:40;;;;;;;;;16.50;14.25;;;;;7.21;70.58;101770.72;4966018;28;45552;-68
2021/10/22 05:44:05;;;;;;;;;16.75;13.50;;;;;7.17;69.72;101770.00;4976716;28;46952;-70
2021/10/22 05:46:30;;;;;;;;;15.50;12.75;;;;;7.17;69.91;101771.78;4979617;28;45568;-69
2021/10/22 05:48:56;;;;;;;;;22.25;12.50;;;;;7.16;70.43;101772.69;4974608;28;45347;-69
2021/10/22 05:51:22;;;;;;;;;18.50;12.75;;;;;7.13;70.45;101765.84;4975319;28;45502;-67
2021/10/22 05:53:47;;;;;;;;;19.25;17.00;;;;;7.10;70.03;101769.44;4973841;28;46840;-69
2021/10/22 05:56:13;;;;;;;;;17.50;17.50;;;;;7.07;70.18;101771.31;4969547;28;45485;-69
2021/10/22 05:58:38;;;;;;;;;17.25;14.25;;;;;7.09;69.78;101772.94;4963775;28;45936;-68
2021/10/22 06:01:03;;;;;;;;;16.50;13.00;;;;;7.08;69.94;101781.72;4960003;28;45542;-68
2021/10/22 06:03:29;;;;;;;;;21.00;17.00;;;;;7.05;70.41;101771.38;4978210;28;45484;-68
2021/10/22 06:05:55;;;;;;;;;11.00;11.00;;;;;7.03;70.17;101773.25;4974560;28;45375;-69
2021/10/22 06:08:21;;;;;;;;;17.25;15.50;;;;;7.01;70.24;101769.81;4973992;28;45536;-68
2021/10/22 06:10:47;;;;;;;;;22.50;14.25;;;;;6.99;69.75;101774.25;4974265;28;45481;-67
2021/10/22 06:13:16;;;;;;;;;20.00;17.25;;;;;7.02;70.10;101779.38;4974202;28;47131;-68
2021/10/22 06:15:42;;;;;;;;;16.67;13.67;;;;;7.01;70.39;101784.66;4988925;28;45560;-69
2021/10/22 06:18:08;;;;;;;;;21.00;17.00;;;;;6.99;70.43;101776.88;4975363;28;45502;-68
2021/10/22 06:25:42;;;;;;;;;22.75;17.50;;;;;7.01;69.76;101784.66;4975031;28;45427;-69
2021/10/22 06:28:08;;;;;;;;;19.75;16.25;;;;;7.01;69.63;101795.94;4988932;28;45448;-68
2021/10/22 06:30:34;;;;;;;;;22.00;18.00;;;;;7.03;70.29;101801.97;4977405;28;45545;-68
2021/10/22 06:32:59;;;;;;;;;26.50;22.00;;;;;7.04;70.43;101811.50;4964944;28;47408;-69
2021/10/22 06:35:25;;;;;;;;;20.50;17.00;;;;;7.05;69.70;101807.13;4970898;28;45493;-69
2021/10/22 06:37:50;;;;;;;;;23.25;19.75;;;;;7.06;70.17;101803.59;4973954;28;45577;-69
2021/10/22 06:40:16;;;;;;;;;23.50;18.00;;;;;7.03;70.18;101803.72;4974086;28;45219;-70
2021/10/22 06:42:42;;;;;;;;;25.00;17.75;;;;;7.07;70.24;101800.94;4956232;28;47110;-69
2021/10/22 06:45:08;;;;;;;;;27.50;22.50;;;;;7.09;70.46;101803.47;4975883;28;45303;-69
2021/10/22 06:47:33;;;;;;;;;23.25;18.00;;;;;7.13;69.64;101818.09;4977571;28;45414;-70
2021/10/22 06:50:00;;;;;;;;;23.75;19.75;;;;;7.17;70.48;101829.28;4957760;28;45312;-69
2021/10/22 06:52:25;;;;;;;;;24.75;19.50;;;;;7.21;70.38;101836.06;4964677;28;45966;-70
2021/10/22 06:54:52;;;;;;;;;29.50;25.25;;;;;7.22;69.80;101840.38;4974353;28;45580;-70
2021/10/22 06:57:18;;;;;;;;;21.75;21.75;;;;;7.22;69.70;101845.63;4975455;28;45383;-69
2021/10/22 06:59:43;;;;;;;;;26.25;23.25;;;;;7.22;69.65;101846.44;4967615;28;45469;-69
2021/10/22 07:02:08;;;;;;;;;29.25;23.75;;;;;7.24;69.37;101851.63;4978340;28;46122;-69
2021/10/22 07:04:35;;;;;;;;;30.25;24.25;;;;;7.26;69.22;101849.78;4978014;28;45436;-69
2021/10/22 07:07:19;;;;;;;;;23.75;21.50;;;;;7.30;69.29;101853.13;4965788;28;45297;-70
2021/10/22 07:09:46;;;;;;;;;21.00;18.00;;;;;7.32;69.51;101860.00;4981677;28;45413;-69
2021/10/22 07:12:12;;;;;;;;;23.00;20.25;;;;;7.38;69.67;101866.72;4980730;28;47089;-70
2021/10/22 07:14:47;;;;;;;;;24.75;22.25;;;;;7.42;69.04;101863.91;4977344;28;45487;-70
2021/10/22 07:17:13;;;;;;;;;26.25;20.00;;;;;7.49;69.57;101868.91;4977457;28;45231;-70
2021/10/22 07:19:39;;;;;;;;;24.00;19.50;;;;;7.54;69.66;101865.16;4977243;28;45274;-71
2021/10/22 07:22:07;;;;;;;;;25.00;21.00;;;;;7.59;69.21;101867.59;4977573;28;46886;-69
2021/10/22 07:24:32;;;;;;;;;32.50;26.50;;;;;7.63;68.83;101874.38;4973691;28;45633;-69
2021/10/22 07:27:00;;;;;;;;;24.75;22.50;;;;;7.65;69.20;101871.69;4983426;28;45358;-68
2021/10/22 07:29:26;;;;;;;;;22.25;19.75;;;;;7.69;69.10;101868.00;4978549;28;45264;-69
2021/10/22 07:31:51;;;;;;;;;24.75;22.50;;;;;7.78;69.05;101875.44;4978416;28;46290;-68
2021/10/22 07:34:20;;;;;;;;;24.25;20.25;;;;;7.88;68.89;101883.75;4960752;28;45413;-69
2021/10/22 07:36:47;;;;;;;;;24.75;19.00;;;;;7.95;68.99;101877.31;4979639;28;45388;-70
2021/10/22 07:39:14;;;;;;;;;23.25;17.50;;;;;8.01;68.66;101874.44;4979045;28;45492;-71
2021/10/22 07:41:39;;;;;;;;;20.50;17.00;;;;;8.07;68.87;101887.25;4970937;28;45507;-70
2021/10/22 07:44:05;;;;;;;;;24.00;21.50;;;;;8.09;68.61;101885.41;4972372;28;45220;-70
2021/10/22 07:46:30;;;;;;;;;25.00;23.50;;;;;8.18;68.56;101885.91;4977560;28;45333;-69
2021/10/22 07:48:56;;;;;;;;;7.75;3.25;;;;;8.23;68.72;101886.56;4977366;28;45534;-69
2021/10/22 07:51:21;;;;;;;;;21.75;19.25;;;;;8.26;68.48;101896.88;4983967;28;46810;-70
2021/10/22 07:53:46;;;;;;;;;16.75;15.00;;;;;8.31;68.00;101896.66;4978771;28;45687;-68
2021/10/22 07:56:12;;;;;;;;;20.50;18.25;;;;;8.36;68.05;101898.16;4977246;28;45441;-70
2021/10/22 07:58:37;;;;;;;;;20.75;15.50;;;;;8.40;68.29;101893.63;4978728;28;45630;-69
2021/10/22 08:01:03;;;;;;;;;19.75;17.25;;;;;8.45;68.27;101896.88;4977202;28;45271;-68
2021/10/22 08:03:29;;;;;;;;;17.75;17.75;;;;;8.51;67.79;101885.28;4976937;28;45465;-69
2021/10/22 08:05:54;;;;;;;;;17.00;14.67;;;;;8.55;67.74;101897.31;4976230;28;45447;-69
2021/10/22 08:08:20;;;;;;;;;21.33;15.67;;;;;8.63;67.92;101908.31;4976177;28;45375;-69
2021/10/22 08:10:45;;;;;;;;;22.67;17.67;;;;;8.69;67.94;101894.91;4976099;28;46007;-70
2021/10/22 08:13:12;;;;;;;;;15.00;13.33;;;;;8.74;67.54;101899.91;4975662;28;45436;-69
2021/10/22 08:15:42;;;;;;;;;14.00;12.00;;;;;8.79;67.61;101904.94;4967976;28;45505;-70
2021/10/22 08:18:09;;;;;;;;;15.67;15.00;;;;;8.83;67.31;101906.50;4978548;28;45422;-69
2021/10/22 08:20:36;;;;;;;;;16.33;15.00;;;;;8.82;67.62;101908.28;4976491;28;45630;-69
2021/10/22 08:23:03;;;;;;;;;11.67;11.67;;;;;8.86;67.11;101909.81;4976708;28;45378;-69
2021/10/22 08:25:28;;;;;;;;;14.33;12.67;;;;;8.93;66.90;101912.16;4980366;28;45513;-69
2021/10/22 08:27:54;;;;;;;;;15.00;13.33;;;;;8.99;66.88;101907.47;4977045;28;45267;-70
2021/10/22 08:30:23;;;;;;;;;14.33;13.33;;;;;9.10;66.69;101920.03;4977650;28;45302;-70
2021/10/22 08:32:56;;;;;;;;;21.00;15.00;;;;;9.22;66.52;101918.56;4976162;28;45247;-69
2021/10/22 08:35:25;;;;;;;;;18.67;14.67;;;;;9.35;66.16;101914.41;4970183;28;45240;-69
2021/10/22 08:37:51;;;;;;;;;16.00;16.00;;;;;9.44;66.49;101917.50;4966808;28;45524;-69
2021/10/22 08:40:17;;;;;;;;;22.33;16.67;;;;;9.50;66.11;101922.47;4976139;28;45599;-69
2021/10/22 08:42:43;;;;;;;;;19.33;18.00;;;;;9.60;66.22;101923.69;4976075;28;45330;-70
2021/10/22 08:45:11;;;;;;;;;29.33;23.33;;;;;9.67;65.97;101930.31;4964407;28;45315;-70
2021/10/22 08:47:36;;;;;;;;;17.00;15.67;;;;;9.75;65.71;101928.13;4972666;28;45474;-69
2021/10/22 08:50:07;;;;;;;;;16.67;15.00;;;;;9.83;65.46;101925.09;4975487;28;47113;-70
2021/10/22 08:52:33;;;;;;;;;15.00;10.00;;;;;9.89;65.39;101935.28;4958870;28;45611;-67
2021/10/22 08:55:00;;;;;;;;;16.33;10.00;;;;;9.97;64.82;101927.03;4978606;28;45446;-70
2021/10/22 08:57:26;;;;;;;;;10.00;10.00;;;;;10.07;64.59;101936.09;4976605;28;46297;-70
2021/10/22 08:59:53;;;;;;;;;11.33;10.67;;;;;10.20;64.14;101936.31;4977504;28;46491;-70
2021/10/22 09:02:25;;;;;;;;;12.00;9.67;;;;;10.28;64.90;101930.66;4979574;28;45519;-69
2021/10/22 09:04:52;;;;;;;;;12.67;10.00;;;;;10.37;64.27;101924.91;4983353;28;45233;-70
2021/10/22 09:07:20;;;;;;;;;13.33;8.33;;;;;10.44;64.18;101930.69;4975872;28;45536;-70
2021/10/22 09:10:02;;;;;;;;;12.00;6.00;;;;;10.50;65.17;101934.78;4986359;28;46164;-69
2021/10/22 09:12:50;;;;;;;;;8.00;8.00;;;;;10.59;64.44;101934.25;4961323;28;45472;-69
2021/10/22 09:15:34;;;;;;;;;9.33;6.00;;;;;10.66;63.81;101943.50;4973922;28;45421;-69
2021/10/22 09:18:05;;;;;;;;;9.00;6.67;;;;;10.75;63.00;101938.69;4964578;28;45324;-70
2021/10/22 09:20:30;;;;;;;;;9.00;5.67;;;;;10.79;62.95;101937.56;4968075;28;47106;-71
2021/10/22 09:22:58;;;;;;;;;8.33;5.00;;;;;10.84;62.18;101943.41;4977191;28;45409;-71
2021/10/22 09:25:27;;;;;;;;;3.00;3.00;;;;;10.84;62.79;101943.41;4979953;28;45327;-70
2021/10/22 09:27:58;;;;;;;;;6.00;4.00;;;;;10.92;62.25;101961.38;4978304;28;45342;-69
2021/10/22 09:30:23;;;;;;;;;4.67;3.67;;;;;10.97;62.48;101960.19;4975527;28;47164;-70
2021/10/22 09:32:50;;;;;;;;;5.67;4.00;;;;;10.99;62.49;101963.59;4975507;28;45444;-69
2021/10/22 09:35:29;;;;;;;;;5.67;4.00;;;;;11.09;61.36;101968.31;4977060;28;45527;-69
2021/10/22 09:37:54;;;;;;;;;2.33;2.33;;;;;11.16;60.85;101967.06;4973195;28;45530;-70
2021/10/22 09:40:28;;;;;;;;;3.00;2.00;;;;;11.20;61.37;101965.94;4961901;28;46248;-69
2021/10/22 09:42:54;;;;;;;;;12.67;11.00;;;;;11.25;60.31;101966.53;4975230;28;45297;-68
2021/10/22 09:45:26;;;;;;;;;10.67;8.67;;;;;11.30;60.85;101972.38;4975811;28;45593;-68
2021/10/22 09:47:52;;;;;;;;;56.25;41.50;;;;;11.32;60.85;101973.09;4966818;28;45461;-68
2021/10/22 09:50:26;;;;;;;;;4.33;4.33;;;;;11.35;60.58;101974.72;4973633;28;46859;-69
2021/10/22 09:52:52;;;;;;;;;19.67;18.00;;;;;11.36;61.05;101966.75;4975076;28;45451;-68
2021/10/22 09:55:19;;;;;;;;;19.67;15.00;;;;;11.46;60.70;101976.75;4977065;28;45440;-69
2021/10/22 09:58:02;;;;;;;;;12.00;6.00;;;;;11.49;60.48;101968.66;4978524;28;45316;-69
2021/10/22 10:00:33;;;;;;;;;9.33;5.00;;;;;11.56;60.89;101975.28;4979025;28;47387;-69
2021/10/22 10:02:59;;;;;;;;;3.00;3.00;;;;;11.63;61.18;101968.69;4987741;28;45495;-71
2021/10/22 10:05:25;;;;;;;;;11.00;11.00;;;;;11.73;60.37;101977.75;4975357;28;45548;-70
2021/10/22 10:07:50;;;;;;;;;3.33;3.00;;;;;11.82;61.07;101972.88;4974678;28;45494;-70
2021/10/22 10:10:15;;;;;;;;;3.33;3.33;;;;;11.92;60.80;101978.44;4975151;28;46166;-70
2021/10/22 10:12:42;;;;;;;;;4.00;2.33;;;;;12.01;60.47;101986.69;4975142;28;45275;-69
2021/10/22 10:15:10;;;;;;;;;3.00;3.00;;;;;12.08;60.72;101983.66;4963025;28;45490;-69
2021/10/22 10:17:38;;;;;;;;;4.00;4.00;;;;;12.15;60.77;101974.44;4971863;28;45255;-69
2021/10/22 10:20:06;;;;;;;;;3.67;2.00;;;;;12.25;59.80;101986.13;4974988;28;46396;-70
2021/10/22 10:22:33;;;;;;;;;2.67;2.67;;;;;12.30;59.82;101989.31;4974836;28;45515;-69
2021/10/22 10:25:03;;;;;;;;;4.00;3.00;;;;;12.33;60.40;101978.59;4975360;28;45449;-70
2021/10/22 10:27:59;;;;;;;;;5.00;3.33;;;;;12.39;60.14;101982.66;4975872;28;45564;-71
2021/10/22 10:30:36;;;;;;;;;4.67;4.67;;;;;12.51;59.92;101986.31;4974225;28;46334;-69
2021/10/22 10:33:05;;;;;;;;;3.33;3.33;;;;;12.59;59.69;101984.03;4970672;28;45428;-70
2021/10/22 10:35:39;;;;;;;;;4.00;4.00;;;;;12.75;59.03;101988.31;4979499;28;45368;-70
2021/10/22 10:38:08;;;;;;;;;2.00;2.00;;;;;12.84;59.11;101993.00;4979334;28;45432;-68
2021/10/22 10:40:35;;;;;;;;;5.00;2.67;;;;;12.94;58.40;101991.47;4980029;28;47187;-71
2021/10/22 10:43:03;;;;;;;;;5.00;5.00;;;;;12.99;59.20;101986.75;4980073;28;45323;-69
2021/10/22 10:45:28;;;;;;;;;4.00;2.00;;;;;13.07;57.99;101982.78;4966812;28;45344;-70
2021/10/22 10:47:58;;;;;;;;;2.00;2.00;;;;;13.10;57.70;101990.50;4980527;28;45485;-70
2021/10/22 10:50:48;;;;;;;;;3.00;2.33;;;;;13.13;57.43;101985.00;4981209;28;46207;-70
2021/10/22 10:53:30;;;;;;;;;3.33;2.00;;;;;13.12;56.96;101991.25;4974161;28;45338;-70
2021/10/22 10:55:55;;;;;;;;;2.33;2.00;;;;;13.12;57.31;101985.97;4981014;28;45499;-70
2021/10/22 10:58:22;;;;;;;;;4.33;2.00;;;;;13.15;57.41;101986.59;4990214;28;45377;-70
2021/10/22 11:01:06;;;;;;;;;4.00;3.33;;;;;13.17;57.94;101978.63;4979152;28;47250;-70
2021/10/22 11:03:48;;;;;;;;;2.67;2.67;;;;;13.28;57.40;101983.19;4978673;28;45522;-69
2021/10/22 11:06:32;;;;;;;;;4.33;3.00;;;;;13.30;56.95;101979.50;4967959;28;45326;-71
2021/10/22 11:08:57;;;;;;;;;2.00;2.00;;;;;13.34;56.66;101988.88;4978103;28;46009;-69
2021/10/22 11:11:27;;;;;;;;;3.00;2.00;;;;;13.33;56.64;101979.28;4977216;28;46246;-71
2021/10/22 11:14:07;;;;;;;;;3.00;2.00;;;;;13.35;56.49;101971.28;4977492;28;45461;-70
2021/10/22 11:16:45;;;;;;;;;1.00;1.00;;;;;13.41;57.04;101978.81;4960438;28;45597;-71
2021/10/22 11:19:27;;;;;;;;;1.00;1.00;;;;;13.50;55.63;101972.06;4964155;28;45504;-70
2021/10/22 11:22:04;;;;;;;;;2.67;1.00;;;;;13.57;55.54;101969.88;4975750;28;46439;-69
2021/10/22 11:24:32;;;;;;;;;3.67;1.33;;;;;13.58;54.73;101972.38;4977659;28;45481;-70
2021/10/22 11:27:12;;;;;;;;;3.67;1.00;;;;;13.56;54.05;101979.59;4976773;28;45310;-69
2021/10/22 11:29:44;;;;;;;;;3.00;1.33;;;;;13.55;53.88;101977.88;4967644;28;45417;-69
2021/10/22 11:32:15;;;;;;;;;1.67;1.67;;;;;13.57;55.29;101973.38;4970398;28;47099;-71
2021/10/22 11:35:02;;;;;;;;;2.00;2.00;;;;;13.66;54.82;101985.06;4977011;28;45355;-71
2021/10/22 11:37:40;;;;;;;;;2.00;0.33;;;;;13.75;54.03;101963.34;4977310;28;45348;-69